createdAt,value
2023-03-28T00:01:22.140Z,70.65
2023-03-28T00:03:50.246Z,73.72
2023-03-28T00:06:18.896Z,71.79
2023-03-28T00:08:56.273Z,72.72
2023-03-28T00:11:24.303Z,72.29
2023-03-28T00:14:04.008Z,72.31
2023-03-28T00:16:37.405Z,71.41
2023-03-28T00:19:07.289Z,71.07
2023-03-28T00:21:41.630Z,71.70
2023-03-28T00:24:14.034Z,72.61
2023-03-28T00:26:43.232Z,72.43
2023-03-28T00:29:15.943Z,73.06
2023-03-28T00:31:43.985Z,72.95
2023-03-28T00:34:12.566Z,72.24
2023-03-28T00:36:41.799Z,72.00
2023-03-28T00:39:10.601Z,72.47
2023-03-28T00:41:40.327Z,73.11
2023-03-28T00:44:43.978Z,74.11
2023-03-28T00:47:12.009Z,73.96
2023-03-28T00:49:39.996Z,73.69
2023-03-28T00:52:07.993Z,73.91
2023-03-28T00:54:39.841Z,73.96
2023-03-28T00:57:07.781Z,74.73
2023-03-28T00:59:35.978Z,75.84
2023-03-28T01:02:04.014Z,76.02
2023-03-28T01:04:38.650Z,77.63
2023-03-28T01:07:06.994Z,78.45
2023-03-28T01:09:38.107Z,80.43
2023-03-28T01:12:06.203Z,82.13
2023-03-28T01:14:34.434Z,80.15
2023-03-28T01:17:03.710Z,83.74
2023-03-28T01:20:06.617Z,82.65
2023-03-28T01:23:01.732Z,89.98
2023-03-28T01:26:01.449Z,90.98
2023-03-28T01:28:39.154Z,90.17
2023-03-28T01:31:29.269Z,91.90
2023-03-28T01:34:56.700Z,90.38
2023-03-28T01:37:36.924Z,96.05
2023-03-28T01:40:17.419Z,92.50
2023-03-28T01:43:08.832Z,93.89
2023-03-28T01:45:51.493Z,92.11
2023-03-28T01:48:28.731Z,95.81
2023-03-28T01:51:18.495Z,99.70
2023-03-28T01:54:09.855Z,96.96
2023-03-28T01:57:01.739Z,98.12
2023-03-28T01:59:39.551Z,98.14
2023-03-28T02:02:39.480Z,96.86
2023-03-28T02:05:23.721Z,94.69
2023-03-28T02:07:53.744Z,95.98
2023-03-28T02:10:31.776Z,99.87
2023-03-28T02:13:07.547Z,98.55
2023-03-28T02:15:52.702Z,93.22
2023-03-28T02:18:55.756Z,91.48
2023-03-28T02:21:41.280Z,95.20
2023-03-28T02:24:29.908Z,95.91
2023-03-28T02:27:21.179Z,93.64
2023-03-28T02:29:59.745Z,93.66
2023-03-28T02:32:36.642Z,95.00
2023-03-28T02:35:05.324Z,98.83
2023-03-28T02:37:40.292Z,99.43
2023-03-28T02:40:35.016Z,100.00
2023-03-28T02:43:14.862Z,100.00
2023-03-28T02:46:01.661Z,100.00
2023-03-28T02:48:43.497Z,100.00
2023-03-28T02:51:40.683Z,100.00
2023-03-28T02:54:14.874Z,100.00
2023-03-28T02:57:03.182Z,100.00
2023-03-28T02:59:45.522Z,100.00
2023-03-28T03:02:21.584Z,100.00
2023-03-28T03:04:57.818Z,100.00
2023-03-28T03:07:26.236Z,100.00
2023-03-28T03:09:54.309Z,100.00
2023-03-28T03:12:23.417Z,100.00
2023-03-28T03:14:55.775Z,100.00
2023-03-28T03:17:49.026Z,100.00
2023-03-28T03:20:19.541Z,100.00
2023-03-28T03:22:47.532Z,100.00
2023-03-28T03:25:16.265Z,100.00
2023-03-28T03:27:53.168Z,100.00
2023-03-28T03:30:21.881Z,100.00
2023-03-28T03:33:17.182Z,100.00
2023-03-28T03:35:47.163Z,100.00
2023-03-28T03:38:15.551Z,100.00
2023-03-28T03:40:43.489Z,100.00
2023-03-28T03:43:11.606Z,100.00
2023-03-28T03:45:41.125Z,100.00
2023-03-28T03:48:09.952Z,100.00
2023-03-28T03:50:38.647Z,100.00
2023-03-28T03:53:12.729Z,100.00
2023-03-28T03:55:47.618Z,100.00
2023-03-28T03:58:15.653Z,100.00
2023-03-28T04:00:44.886Z,100.00
2023-03-28T04:03:26.800Z,100.00
2023-03-28T04:05:58.133Z,100.00
2023-03-28T04:08:26.456Z,100.00
2023-03-28T04:10:54.658Z,100.00
2023-03-28T04:13:22.870Z,100.00
2023-03-28T04:15:54.678Z,100.00
2023-03-28T04:18:35.485Z,100.00
2023-03-28T04:21:05.443Z,100.00
2023-03-28T04:23:44.193Z,100.00
2023-03-28T04:26:26.605Z,100.00
2023-03-28T04:29:06.884Z,100.00
2023-03-28T04:31:40.022Z,100.00
2023-03-28T04:34:31.550Z,100.00
2023-03-28T04:37:10.905Z,100.00
2023-03-28T04:39:48.847Z,100.00
2023-03-28T04:42:40.050Z,100.00
2023-03-28T04:45:19.028Z,100.00
2023-03-28T04:47:48.899Z,100.00
2023-03-28T04:50:18.643Z,100.00
2023-03-28T04:52:47.051Z,100.00
2023-03-28T04:55:16.917Z,100.00
2023-03-28T04:57:46.139Z,100.00
2023-03-28T05:00:17.374Z,100.00
2023-03-28T05:03:00.220Z,100.00
2023-03-28T05:05:33.642Z,100.00
2023-03-28T05:08:02.182Z,100.00
2023-03-28T05:10:30.418Z,100.00
2023-03-28T05:13:03.946Z,100.00
2023-03-28T05:15:36.808Z,100.00
2023-03-28T05:18:17.228Z,100.00
2023-03-28T05:20:45.281Z,100.00
2023-03-28T05:23:13.375Z,100.00
2023-03-28T05:25:42.793Z,100.00
2023-03-28T05:28:11.156Z,100.00
2023-03-28T05:30:48.394Z,100.00
2023-03-28T05:33:17.263Z,100.00
2023-03-28T05:35:47.151Z,99.99
2023-03-28T05:38:16.718Z,99.71
2023-03-28T05:40:46.336Z,98.68
2023-03-28T05:43:14.448Z,98.03
2023-03-28T05:45:42.941Z,95.80
2023-03-28T05:48:14.472Z,93.25
2023-03-28T05:50:43.064Z,94.41
2023-03-28T05:53:11.458Z,93.73
2023-03-28T05:55:41.739Z,93.95
2023-03-28T05:58:10.092Z,94.45
2023-03-28T06:00:40.800Z,93.09
2023-03-28T06:03:16.254Z,92.01
2023-03-28T06:05:45.924Z,90.49
2023-03-28T06:08:25.924Z,85.97
2023-03-28T06:10:54.437Z,83.96
2023-03-28T06:13:31.973Z,77.82
2023-03-28T06:16:01.151Z,75.68
2023-03-28T06:18:35.185Z,70.64
2023-03-28T06:21:05.018Z,69.70
2023-03-28T06:23:34.550Z,68.75
2023-03-28T06:26:03.671Z,67.99
2023-03-28T06:28:37.704Z,67.96
2023-03-28T06:31:20.093Z,67.10
2023-03-28T06:33:48.951Z,66.57
2023-03-28T06:36:19.737Z,65.89
2023-03-28T06:38:50.341Z,63.07
2023-03-28T06:41:18.896Z,60.92
2023-03-28T06:43:46.962Z,60.64
2023-03-28T06:46:33.886Z,58.28
2023-03-28T06:49:01.955Z,57.02
2023-03-28T06:51:48.902Z,56.38
2023-03-28T06:54:17.030Z,55.21
2023-03-28T06:56:45.279Z,53.20
2023-03-28T06:59:13.325Z,51.81
2023-03-28T07:01:42.249Z,51.63
2023-03-28T07:04:16.233Z,51.04
2023-03-28T07:06:45.613Z,50.65
2023-03-28T07:09:13.621Z,48.89
2023-03-28T07:11:45.769Z,48.78
2023-03-28T07:14:14.167Z,49.64
2023-03-28T07:16:42.349Z,48.50
2023-03-28T07:19:11.428Z,48.77
2023-03-28T07:21:42.056Z,48.90
2023-03-28T07:24:10.144Z,48.73
2023-03-28T07:27:14.895Z,48.59
2023-03-28T07:29:44.456Z,47.53
2023-03-28T07:32:12.710Z,47.29
2023-03-28T07:34:40.940Z,47.64
2023-03-28T07:37:10.168Z,48.10
2023-03-28T07:39:58.576Z,47.57
2023-03-28T07:42:27.518Z,47.35
2023-03-28T07:44:56.431Z,47.55
2023-03-28T07:47:24.400Z,47.72
2023-03-28T07:49:52.628Z,46.85
2023-03-28T07:52:21.032Z,47.01
2023-03-28T07:54:49.185Z,47.45
2023-03-28T07:57:17.554Z,48.04
2023-03-28T08:00:09.332Z,46.64
2023-03-28T08:02:44.686Z,46.14
2023-03-28T08:05:13.387Z,45.89
2023-03-28T08:07:42.309Z,47.20
2023-03-28T08:10:10.554Z,48.20
2023-03-28T08:12:39.274Z,48.54
2023-03-28T08:15:08.185Z,48.44
2023-03-28T08:17:36.353Z,48.42
2023-03-28T08:20:08.616Z,48.15
2023-03-28T08:22:55.204Z,48.50
2023-03-28T08:25:41.761Z,49.36
2023-03-28T08:28:11.683Z,47.46
2023-03-28T08:30:40.101Z,48.96
2023-03-28T08:33:08.107Z,50.29
2023-03-28T08:35:36.310Z,51.14
2023-03-28T08:38:11.059Z,51.86
2023-03-28T08:40:40.431Z,53.18
2023-03-28T08:43:37.125Z,54.55
2023-03-28T08:46:05.367Z,56.31
2023-03-28T08:48:41.679Z,55.79
2023-03-28T08:51:10.023Z,52.76
2023-03-28T08:53:43.851Z,52.33
2023-03-28T08:56:12.120Z,52.21
2023-03-28T08:59:04.983Z,51.54
2023-03-28T09:01:33.103Z,51.16
2023-03-28T09:04:02.327Z,51.06
2023-03-28T09:06:41.193Z,49.66
2023-03-28T09:09:25.282Z,49.23
2023-03-28T09:12:32.620Z,47.92
2023-03-28T09:15:23.159Z,47.04
2023-03-28T09:18:13.792Z,44.13
2023-03-28T09:20:57.498Z,45.07
2023-03-28T09:23:50.801Z,47.24
2023-03-28T09:26:27.642Z,52.34
2023-03-28T09:29:00.151Z,56.00
2023-03-28T09:31:33.412Z,56.62
2023-03-28T09:34:02.445Z,55.02
2023-03-28T09:36:48.867Z,53.41
2023-03-28T09:39:26.655Z,51.21
2023-03-28T09:42:25.440Z,47.18
2023-03-28T09:45:46.340Z,44.35
2023-03-28T09:48:35.211Z,44.08
2023-03-28T09:51:07.079Z,43.89
2023-03-28T09:53:37.130Z,42.64
2023-03-28T09:56:26.391Z,41.41
2023-03-28T09:58:59.710Z,41.54
2023-03-28T10:01:44.711Z,40.39
2023-03-28T10:04:37.683Z,41.16
2023-03-28T10:07:16.716Z,42.39
2023-03-28T10:09:57.315Z,44.39
2023-03-28T10:12:27.621Z,45.48
2023-03-28T10:14:56.024Z,46.73
2023-03-28T10:17:43.683Z,47.65
2023-03-28T10:20:21.907Z,47.90
2023-03-28T10:22:54.982Z,47.22
2023-03-28T10:25:33.967Z,46.64
2023-03-28T10:28:02.407Z,46.15
2023-03-28T10:30:31.338Z,46.24
2023-03-28T10:33:18.108Z,47.12
2023-03-28T10:36:03.833Z,49.67
2023-03-28T10:38:36.845Z,54.65
2023-03-28T10:41:28.942Z,56.96
2023-03-28T10:44:19.556Z,54.75
2023-03-28T10:46:53.538Z,52.30
2023-03-28T10:49:26.207Z,49.22
2023-03-28T10:51:58.888Z,46.05
2023-03-28T10:54:28.647Z,46.18
2023-03-28T10:57:10.624Z,45.02
2023-03-28T10:59:54.979Z,45.30
2023-03-28T11:02:34.577Z,45.67
2023-03-28T11:05:21.647Z,44.39
2023-03-28T11:08:05.990Z,42.51
2023-03-28T11:11:06.576Z,42.34
2023-03-28T11:14:02.150Z,44.68
2023-03-28T11:17:18.356Z,47.83
2023-03-28T11:20:05.962Z,53.27
2023-03-28T11:23:05.706Z,54.97
2023-03-28T11:25:46.720Z,55.04
2023-03-28T11:28:52.916Z,52.75
2023-03-28T11:31:24.931Z,49.44
2023-03-28T11:34:07.464Z,47.30
2023-03-28T11:37:08.320Z,46.05
2023-03-28T11:39:42.984Z,44.10
2023-03-28T11:42:16.073Z,43.67
2023-03-28T11:44:58.730Z,43.02
2023-03-28T11:47:33.215Z,41.38
2023-03-28T11:50:33.157Z,39.97
2023-03-28T11:53:13.773Z,41.57
2023-03-28T11:55:52.075Z,46.11
2023-03-28T11:58:41.142Z,45.96
2023-03-28T12:01:12.203Z,46.50
2023-03-28T12:04:06.398Z,48.00
2023-03-28T12:07:12.268Z,47.16
2023-03-28T12:09:53.859Z,47.24
2023-03-28T12:12:38.932Z,45.72
2023-03-28T12:15:17.253Z,45.93
2023-03-28T12:18:01.042Z,47.60
2023-03-28T12:20:53.041Z,52.02
2023-03-28T12:23:59.862Z,52.41
2023-03-28T12:26:52.622Z,52.21
2023-03-28T12:29:28.539Z,50.94
2023-03-28T12:32:03.864Z,49.50
2023-03-28T12:34:37.696Z,48.36
2023-03-28T12:37:28.865Z,45.31
2023-03-28T12:40:59.766Z,43.47
2023-03-28T12:43:41.435Z,44.02
2023-03-28T12:46:10.624Z,45.44
2023-03-28T12:48:50.426Z,46.10
2023-03-28T12:51:22.881Z,45.93
2023-03-28T12:54:08.576Z,44.64
2023-03-28T12:56:37.775Z,43.79
2023-03-28T12:59:39.230Z,41.13
2023-03-28T13:02:11.893Z,40.11
2023-03-28T13:05:04.476Z,41.35
2023-03-28T13:08:04.522Z,41.95
2023-03-28T13:10:42.881Z,42.45
2023-03-28T13:13:20.324Z,41.03
2023-03-28T13:16:13.130Z,41.32
2023-03-28T13:18:48.456Z,41.34
2023-03-28T13:21:46.363Z,40.58
2023-03-28T13:24:32.121Z,39.84
2023-03-28T13:27:14.405Z,37.36
2023-03-28T13:29:46.640Z,37.56
2023-03-28T13:32:16.654Z,37.79
2023-03-28T13:35:00.080Z,37.62
2023-03-28T13:38:05.090Z,36.16
2023-03-28T13:40:50.981Z,35.77
2023-03-28T13:43:25.367Z,35.28
2023-03-28T13:45:59.026Z,35.54
2023-03-28T13:48:34.961Z,35.49
2023-03-28T13:51:06.951Z,34.46
2023-03-28T13:53:46.300Z,33.12
2023-03-28T13:56:23.780Z,32.82
2023-03-28T13:58:53.439Z,33.46
2023-03-28T14:01:42.869Z,33.94
2023-03-28T14:04:17.229Z,34.06
2023-03-28T14:06:45.652Z,33.20
2023-03-28T14:09:34.292Z,33.32
2023-03-28T14:12:11.426Z,33.70
2023-03-28T14:14:58.536Z,33.67
2023-03-28T14:17:32.715Z,33.77
2023-03-28T14:20:03.586Z,33.92
2023-03-28T14:22:32.871Z,34.01
2023-03-28T14:25:07.759Z,34.56
2023-03-28T14:27:43.762Z,34.92
2023-03-28T14:30:29.966Z,34.33
2023-03-28T14:33:01.333Z,33.85
2023-03-28T14:35:33.668Z,33.91
2023-03-28T14:38:06.657Z,35.23
2023-03-28T14:40:36.939Z,35.29
2023-03-28T14:43:12.347Z,35.08
2023-03-28T14:45:47.751Z,35.04
2023-03-28T14:48:27.063Z,34.57
2023-03-28T14:50:55.373Z,34.68
2023-03-28T14:53:28.077Z,34.39
2023-03-28T14:56:02.219Z,33.64
2023-03-28T14:58:31.482Z,33.38
2023-03-28T15:01:01.203Z,33.37
2023-03-28T15:03:39.106Z,34.27
2023-03-28T15:06:08.201Z,33.38
2023-03-28T15:08:38.412Z,32.92
2023-03-28T15:11:19.618Z,32.23
2023-03-28T15:14:01.442Z,32.95
2023-03-28T15:16:29.567Z,32.53
2023-03-28T15:19:09.736Z,33.07
2023-03-28T15:21:39.486Z,33.33
2023-03-28T15:24:12.791Z,33.33
2023-03-28T15:26:46.490Z,33.62
2023-03-28T15:29:16.817Z,33.22
2023-03-28T15:31:45.113Z,33.74
2023-03-28T15:34:20.688Z,33.49
2023-03-28T15:36:56.215Z,34.67
2023-03-28T15:39:32.286Z,35.24
2023-03-28T15:42:18.907Z,34.87
2023-03-28T15:44:58.926Z,34.61
2023-03-28T15:47:31.653Z,34.50
2023-03-28T15:50:04.031Z,34.36
2023-03-28T15:52:34.685Z,33.94
2023-03-28T15:55:03.515Z,33.89
2023-03-28T15:57:32.606Z,33.42
2023-03-28T16:00:06.032Z,34.20
2023-03-28T16:02:41.062Z,34.68
2023-03-28T16:05:09.777Z,35.42
2023-03-28T16:07:46.496Z,35.56
2023-03-28T16:10:16.973Z,35.50
2023-03-28T16:13:04.197Z,35.82
2023-03-28T16:15:38.979Z,35.68
2023-03-28T16:18:23.697Z,35.84
2023-03-28T16:20:55.646Z,35.60
2023-03-28T16:23:23.762Z,35.71
2023-03-28T16:25:51.797Z,36.13
2023-03-28T16:28:20.177Z,36.24
2023-03-28T16:30:48.441Z,36.47
2023-03-28T16:33:17.758Z,37.15
2023-03-28T16:35:45.979Z,37.08
2023-03-28T16:38:14.314Z,37.52
2023-03-28T16:40:43.134Z,37.94
2023-03-28T16:43:13.356Z,38.29
2023-03-28T16:45:42.513Z,38.32
2023-03-28T16:48:10.721Z,38.57
2023-03-28T16:50:40.699Z,39.02
2023-03-28T16:53:09.125Z,39.37
2023-03-28T16:55:38.894Z,39.41
2023-03-28T16:58:07.002Z,40.17
2023-03-28T17:00:43.084Z,40.00
2023-03-28T17:03:11.341Z,40.53
2023-03-28T17:05:39.736Z,40.77
2023-03-28T17:08:07.984Z,40.72
2023-03-28T17:10:41.759Z,40.96
2023-03-28T17:13:10.437Z,41.05
2023-03-28T17:15:38.673Z,41.34
2023-03-28T17:18:07.404Z,41.67
2023-03-28T17:20:36.459Z,41.88
2023-03-28T17:23:06.637Z,41.82
2023-03-28T17:25:41.735Z,41.84
2023-03-28T17:28:17.089Z,42.39
2023-03-28T17:30:45.440Z,42.81
2023-03-28T17:33:16.147Z,43.15
2023-03-28T17:35:44.214Z,43.07
2023-03-28T17:38:13.440Z,43.59
2023-03-28T17:40:48.685Z,44.00
2023-03-28T17:43:17.112Z,43.97
2023-03-28T17:45:45.870Z,44.47
2023-03-28T17:48:14.045Z,44.72
2023-03-28T17:50:42.393Z,44.46
2023-03-28T17:53:11.047Z,44.42
2023-03-28T17:55:39.286Z,44.83
2023-03-28T17:58:08.199Z,44.24
2023-03-28T18:00:36.397Z,44.21
2023-03-28T18:03:04.696Z,44.76
2023-03-28T18:06:04.386Z,44.86
2023-03-28T18:08:34.465Z,44.19
2023-03-28T18:11:07.641Z,44.49
2023-03-28T18:13:36.381Z,44.88
2023-03-28T18:16:06.119Z,44.17
2023-03-28T18:18:34.340Z,45.43
2023-03-28T18:21:04.775Z,45.27
2023-03-28T18:23:36.032Z,45.69
2023-03-28T18:26:04.576Z,46.43
2023-03-28T18:28:36.906Z,46.82
2023-03-28T18:31:10.774Z,46.79
2023-03-28T18:33:40.505Z,47.31
2023-03-28T18:36:09.430Z,46.48
2023-03-28T18:38:42.847Z,47.18
2023-03-28T18:41:12.924Z,46.81
2023-03-28T18:43:42.244Z,46.76
2023-03-28T18:46:15.399Z,46.78
2023-03-28T18:48:44.995Z,46.88
2023-03-28T18:51:14.018Z,47.82
2023-03-28T18:53:42.184Z,47.86
2023-03-28T18:56:10.586Z,49.07
2023-03-28T18:58:39.040Z,49.27
2023-03-28T19:01:10.530Z,48.01
2023-03-28T19:03:43.176Z,47.85
2023-03-28T19:06:12.364Z,48.04
2023-03-28T19:08:40.734Z,49.05
2023-03-28T19:11:12.031Z,48.68
2023-03-28T19:13:41.854Z,49.80
2023-03-28T19:16:14.222Z,50.65
2023-03-28T19:18:44.812Z,50.17
2023-03-28T19:21:13.065Z,50.63
2023-03-28T19:23:41.819Z,50.71
2023-03-28T19:26:11.738Z,50.89
2023-03-28T19:28:40.154Z,52.82
2023-03-28T19:31:10.060Z,51.82
2023-03-28T19:33:38.720Z,52.47
2023-03-28T19:36:07.787Z,52.95
2023-03-28T19:38:38.556Z,53.37
2023-03-28T19:41:19.252Z,54.45
2023-03-28T19:43:49.494Z,53.80
2023-03-28T19:46:27.959Z,55.02
2023-03-28T19:49:01.859Z,56.10
2023-03-28T19:51:39.445Z,53.81
2023-03-28T19:54:07.782Z,53.96
2023-03-28T19:56:36.567Z,54.94
2023-03-28T19:59:04.952Z,55.73
2023-03-28T20:01:36.586Z,55.82
2023-03-28T20:04:04.919Z,55.46
2023-03-28T20:06:33.387Z,55.47
2023-03-28T20:09:01.834Z,55.30
2023-03-28T20:11:30.085Z,55.54
2023-03-28T20:13:58.784Z,56.20
2023-03-28T20:16:27.021Z,56.65
2023-03-28T20:18:56.415Z,57.05
2023-03-28T20:21:24.682Z,56.94
2023-03-28T20:23:52.824Z,56.73
2023-03-28T20:26:23.516Z,57.72
2023-03-28T20:28:57.000Z,58.07
2023-03-28T20:31:26.223Z,55.99
2023-03-28T20:33:55.096Z,56.35
2023-03-28T20:36:23.515Z,56.94
2023-03-28T20:38:52.887Z,57.76
2023-03-28T20:41:20.989Z,57.29
2023-03-28T20:43:50.741Z,57.73
2023-03-28T20:46:23.837Z,58.84
2023-03-28T20:48:53.075Z,57.89
2023-03-28T20:51:23.101Z,58.60
2023-03-28T20:54:04.630Z,60.72
2023-03-28T20:56:32.576Z,59.55
2023-03-28T20:59:00.855Z,60.95
2023-03-28T21:01:30.412Z,60.13
2023-03-28T21:04:00.216Z,62.19
2023-03-28T21:06:30.537Z,61.28
2023-03-28T21:09:00.792Z,60.81
2023-03-28T21:11:30.892Z,60.85
2023-03-28T21:14:00.062Z,61.18
2023-03-28T21:16:29.041Z,62.59
2023-03-28T21:18:57.478Z,61.25
2023-03-28T21:21:29.994Z,60.80
2023-03-28T21:23:58.519Z,63.15
2023-03-28T21:26:26.837Z,61.34
2023-03-28T21:28:55.129Z,64.00
2023-03-28T21:31:29.732Z,63.72
2023-03-28T21:33:58.630Z,63.98
2023-03-28T21:36:27.297Z,64.07
2023-03-28T21:38:56.094Z,63.64
2023-03-28T21:41:24.660Z,65.60
2023-03-28T21:43:54.778Z,64.94
2023-03-28T21:46:22.969Z,65.94
2023-03-28T21:48:51.326Z,67.50
2023-03-28T21:51:19.532Z,66.25
2023-03-28T21:53:47.920Z,66.91
2023-03-28T21:56:16.982Z,67.03
2023-03-28T21:58:45.035Z,67.16
2023-03-28T22:01:14.201Z,67.06
2023-03-28T22:03:42.688Z,67.40
2023-03-28T22:06:11.016Z,69.62
2023-03-28T22:08:40.659Z,69.83
2023-03-28T22:11:19.937Z,69.92
2023-03-28T22:13:47.998Z,69.10
2023-03-28T22:16:16.150Z,69.76
2023-03-28T22:18:50.413Z,69.81
2023-03-28T22:21:18.753Z,70.95
2023-03-28T22:23:49.980Z,71.57
2023-03-28T22:26:18.167Z,69.66
2023-03-28T22:28:46.334Z,71.16
2023-03-28T22:31:17.039Z,70.32
2023-03-28T22:33:45.395Z,72.96
2023-03-28T22:36:13.616Z,72.01
2023-03-28T22:38:41.864Z,72.01
2023-03-28T22:41:10.225Z,72.09
2023-03-28T22:43:39.205Z,70.65
2023-03-28T22:46:07.418Z,72.89
2023-03-28T22:48:38.278Z,73.01
2023-03-28T22:51:11.830Z,72.71
2023-03-28T22:53:40.307Z,73.89
2023-03-28T22:56:08.670Z,74.12
2023-03-28T22:58:37.153Z,73.74
2023-03-28T23:01:07.187Z,72.99
2023-03-28T23:03:35.459Z,73.16
2023-03-28T23:06:06.299Z,74.85
2023-03-28T23:08:35.102Z,74.36
2023-03-28T23:11:03.412Z,75.83
2023-03-28T23:13:33.321Z,77.27
2023-03-28T23:16:01.439Z,76.26
2023-03-28T23:18:30.590Z,75.35
2023-03-28T23:20:58.795Z,75.41
2023-03-28T23:23:27.422Z,76.26
2023-03-28T23:25:55.577Z,75.29
2023-03-28T23:28:23.718Z,75.84
2023-03-28T23:30:51.842Z,76.32
2023-03-28T23:33:20.086Z,77.96
2023-03-28T23:35:48.609Z,76.41
2023-03-28T23:38:17.705Z,78.15
2023-03-28T23:40:46.872Z,78.88
2023-03-28T23:43:14.860Z,77.75
2023-03-28T23:45:43.508Z,77.38
2023-03-28T23:48:11.903Z,76.09
2023-03-28T23:50:40.030Z,76.12
2023-03-28T23:53:08.353Z,78.22
2023-03-28T23:55:36.450Z,80.28
2023-03-28T23:58:04.998Z,77.89
